createdAt,value
2023-10-24T00:01:44.901Z,11.63
2023-10-24T00:04:11.970Z,11.63
2023-10-24T00:06:38.716Z,11.63
2023-10-24T00:09:05.915Z,11.63
2023-10-24T00:11:33.534Z,11.69
2023-10-24T00:14:00.102Z,11.63
2023-10-24T00:16:26.854Z,11.63
2023-10-24T00:18:53.508Z,11.63
2023-10-24T00:21:20.102Z,11.69
2023-10-24T00:23:46.688Z,11.69
2023-10-24T00:26:13.279Z,11.69
2023-10-24T00:28:39.958Z,11.69
2023-10-24T00:31:08.399Z,11.69
2023-10-24T00:33:35.143Z,11.69
2023-10-24T00:36:01.799Z,11.69
2023-10-24T00:38:28.520Z,11.75
2023-10-24T00:40:55.147Z,11.75
2023-10-24T00:43:21.781Z,11.69
2023-10-24T00:45:48.532Z,11.69
2023-10-24T00:48:15.166Z,11.69
2023-10-24T00:50:42.163Z,11.69
2023-10-24T00:53:08.793Z,11.69
2023-10-24T00:55:38.972Z,11.69
2023-10-24T00:58:07.627Z,11.75
2023-10-24T01:00:35.389Z,11.75
2023-10-24T01:03:04.247Z,11.75
2023-10-24T01:05:32.599Z,11.75
2023-10-24T01:07:59.372Z,11.81
2023-10-24T01:10:26.067Z,11.81
2023-10-24T01:12:53.146Z,11.75
2023-10-24T01:15:19.836Z,11.75
2023-10-24T01:17:51.509Z,11.75
2023-10-24T01:20:18.527Z,11.75
2023-10-24T01:22:46.421Z,11.81
2023-10-24T01:25:15.466Z,11.75
2023-10-24T01:27:43.981Z,11.81
2023-10-24T01:30:13.928Z,11.75
2023-10-24T01:32:40.647Z,11.81
2023-10-24T01:35:08.338Z,11.81
2023-10-24T01:37:36.418Z,11.81
2023-10-24T01:40:06.818Z,11.81
2023-10-24T01:42:33.422Z,11.81
2023-10-24T01:45:00.031Z,11.81
2023-10-24T01:47:26.690Z,11.81
2023-10-24T01:49:53.348Z,11.88
2023-10-24T01:52:20.068Z,11.88
2023-10-24T01:54:46.808Z,11.88
2023-10-24T01:57:13.416Z,11.94
2023-10-24T01:59:39.960Z,11.88
2023-10-24T02:02:06.702Z,11.88
2023-10-24T02:04:33.567Z,11.88
2023-10-24T02:07:00.338Z,11.88
2023-10-24T02:09:28.708Z,11.88
2023-10-24T02:11:55.346Z,11.88
2023-10-24T02:14:21.941Z,11.88
2023-10-24T02:16:48.684Z,11.88
2023-10-24T02:19:15.285Z,11.88
2023-10-24T02:21:41.912Z,11.88
2023-10-24T02:24:08.550Z,11.88
2023-10-24T02:26:35.139Z,11.88
2023-10-24T02:29:01.791Z,11.88
2023-10-24T02:31:28.679Z,11.88
2023-10-24T02:33:55.348Z,11.88
2023-10-24T02:36:22.018Z,11.88
2023-10-24T02:38:48.893Z,11.88
2023-10-24T02:41:16.458Z,11.88
2023-10-24T02:43:43.101Z,11.88
2023-10-24T02:46:09.639Z,11.81
2023-10-24T02:48:36.232Z,11.81
2023-10-24T02:51:03.752Z,11.81
2023-10-24T02:53:30.668Z,11.81
2023-10-24T02:56:03.165Z,11.81
2023-10-24T02:58:30.094Z,11.75
2023-10-24T03:00:56.761Z,11.75
2023-10-24T03:03:24.169Z,11.75
2023-10-24T03:05:50.827Z,11.75
2023-10-24T03:08:17.387Z,11.75
2023-10-24T03:10:44.140Z,11.69
2023-10-24T03:13:10.801Z,11.69
2023-10-24T03:15:37.480Z,11.69
2023-10-24T03:18:04.250Z,11.63
2023-10-24T03:20:30.886Z,11.56
2023-10-24T03:22:58.042Z,11.50
2023-10-24T03:25:26.081Z,11.50
2023-10-24T03:27:56.009Z,11.44
2023-10-24T03:30:23.063Z,11.44
2023-10-24T03:32:50.067Z,11.38
2023-10-24T03:35:16.851Z,11.44
2023-10-24T03:37:43.512Z,11.38
2023-10-24T03:40:11.253Z,11.31
2023-10-24T03:42:38.262Z,11.38
2023-10-24T03:45:05.970Z,11.31
2023-10-24T03:47:32.904Z,11.31
2023-10-24T03:49:59.764Z,11.31
2023-10-24T03:52:26.537Z,11.19
2023-10-24T03:54:53.334Z,11.13
2023-10-24T03:57:19.968Z,11.13
2023-10-24T03:59:46.565Z,11.13
2023-10-24T04:02:13.194Z,11.06
2023-10-24T04:04:40.056Z,11.06
2023-10-24T04:07:06.961Z,11.00
2023-10-24T04:09:39.221Z,11.00
2023-10-24T04:12:07.374Z,11.00
2023-10-24T04:14:34.094Z,11.00
2023-10-24T04:17:01.093Z,11.00
2023-10-24T04:19:27.980Z,11.00
2023-10-24T04:21:54.762Z,10.94
2023-10-24T04:24:21.431Z,11.00
2023-10-24T04:26:48.089Z,10.94
2023-10-24T04:29:14.700Z,10.94
2023-10-24T04:31:42.387Z,10.94
2023-10-24T04:34:09.289Z,10.94
2023-10-24T04:36:35.952Z,10.88
2023-10-24T04:39:02.631Z,10.94
2023-10-24T04:41:29.292Z,10.88
2023-10-24T04:43:55.903Z,10.88
2023-10-24T04:46:22.668Z,10.88
2023-10-24T04:48:49.342Z,10.88
2023-10-24T04:51:15.917Z,10.81
2023-10-24T04:53:43.126Z,10.88
2023-10-24T04:56:09.714Z,10.88
2023-10-24T04:58:36.538Z,10.88
2023-10-24T05:01:03.609Z,10.88
2023-10-24T05:03:30.304Z,10.81
2023-10-24T05:05:57.081Z,10.88
2023-10-24T05:08:23.622Z,10.88
2023-10-24T05:10:51.044Z,10.88
2023-10-24T05:13:17.799Z,10.88
2023-10-24T05:15:46.586Z,10.88
2023-10-24T05:18:13.361Z,10.88
2023-10-24T05:20:40.334Z,10.88
2023-10-24T05:23:07.739Z,10.88
2023-10-24T05:25:35.099Z,10.81
2023-10-24T05:28:01.805Z,10.88
2023-10-24T05:30:28.417Z,10.88
2023-10-24T05:32:55.937Z,10.88
2023-10-24T05:35:22.689Z,10.88
2023-10-24T05:37:49.372Z,10.88
2023-10-24T05:40:16.212Z,10.81
2023-10-24T05:42:42.934Z,10.88
2023-10-24T05:45:09.960Z,10.88
2023-10-24T05:47:36.798Z,10.81
2023-10-24T05:50:03.646Z,10.81
2023-10-24T05:52:32.249Z,10.81
2023-10-24T05:54:59.323Z,10.81
2023-10-24T05:57:26.284Z,10.75
2023-10-24T05:59:52.844Z,10.81
2023-10-24T06:02:19.483Z,10.88
2023-10-24T06:04:46.352Z,10.75
2023-10-24T06:07:14.698Z,10.81
2023-10-24T06:09:41.452Z,10.75
2023-10-24T06:12:09.320Z,10.75
2023-10-24T06:14:36.169Z,10.81
2023-10-24T06:17:03.121Z,10.75
2023-10-24T06:19:30.467Z,10.81
2023-10-24T06:21:57.289Z,10.81
2023-10-24T06:24:24.038Z,10.81
2023-10-24T06:26:50.639Z,10.81
2023-10-24T06:29:17.782Z,10.88
2023-10-24T06:31:44.402Z,10.88
2023-10-24T06:34:11.083Z,10.88
2023-10-24T06:36:37.747Z,10.88
2023-10-24T06:39:05.090Z,10.88
2023-10-24T06:41:32.879Z,10.81
2023-10-24T06:43:59.583Z,10.81
2023-10-24T06:46:26.408Z,10.88
2023-10-24T06:48:53.663Z,10.88
2023-10-24T06:51:20.403Z,10.81
2023-10-24T06:53:47.189Z,10.81
2023-10-24T06:56:13.900Z,10.88
2023-10-24T06:58:41.631Z,10.81
2023-10-24T07:01:08.497Z,10.88
2023-10-24T07:03:35.145Z,10.88
2023-10-24T07:06:01.887Z,10.88
2023-10-24T07:08:28.621Z,10.88
2023-10-24T07:10:55.262Z,10.88
2023-10-24T07:13:22.018Z,10.88
2023-10-24T07:15:49.222Z,10.88
2023-10-24T07:18:16.050Z,10.88
2023-10-24T07:20:44.158Z,10.88
2023-10-24T07:23:10.725Z,10.81
2023-10-24T07:25:37.375Z,10.81
2023-10-24T07:28:05.332Z,10.75
2023-10-24T07:30:32.823Z,10.88
2023-10-24T07:32:59.670Z,10.88
2023-10-24T07:35:26.645Z,10.81
2023-10-24T07:37:54.375Z,10.81
2023-10-24T07:40:21.098Z,10.81
2023-10-24T07:42:47.839Z,10.88
2023-10-24T07:45:14.872Z,10.81
2023-10-24T07:47:42.248Z,10.94
2023-10-24T07:50:10.554Z,10.94
2023-10-24T07:52:37.423Z,10.94
2023-10-24T07:55:04.370Z,10.94
2023-10-24T07:57:31.303Z,11.00
2023-10-24T07:59:58.908Z,11.06
2023-10-24T08:02:25.611Z,11.06
2023-10-24T08:04:52.608Z,11.06
2023-10-24T08:07:19.692Z,11.06
2023-10-24T08:09:46.352Z,11.13
2023-10-24T08:12:13.078Z,11.13
2023-10-24T08:14:40.085Z,11.19
2023-10-24T08:17:07.293Z,11.19
2023-10-24T08:19:34.087Z,11.25
2023-10-24T08:22:00.789Z,11.25
2023-10-24T08:24:27.439Z,11.31
2023-10-24T08:27:09.775Z,11.31
2023-10-24T08:29:38.062Z,11.38
2023-10-24T08:32:09.431Z,11.38
2023-10-24T08:34:40.350Z,11.38
2023-10-24T08:37:07.335Z,11.44
2023-10-24T08:39:33.936Z,11.44
2023-10-24T08:42:00.904Z,11.50
2023-10-24T08:44:28.043Z,11.56
2023-10-24T08:46:55.245Z,11.56
2023-10-24T08:49:22.204Z,11.63
2023-10-24T08:51:49.434Z,11.63
2023-10-24T08:54:16.118Z,11.56
2023-10-24T08:56:42.956Z,11.63
2023-10-24T08:59:12.108Z,11.63
2023-10-24T09:01:43.302Z,11.69
2023-10-24T09:04:10.099Z,11.69
2023-10-24T09:06:38.289Z,11.69
2023-10-24T09:09:05.297Z,11.69
2023-10-24T09:11:59.851Z,11.75
2023-10-24T09:14:37.877Z,11.81
2023-10-24T09:17:13.709Z,11.88
2023-10-24T09:19:43.579Z,12.13
2023-10-24T09:22:11.156Z,12.31
2023-10-24T09:24:37.797Z,12.25
2023-10-24T09:27:04.953Z,12.25
2023-10-24T09:29:33.354Z,12.44
2023-10-24T09:32:00.120Z,12.31
2023-10-24T09:34:28.240Z,12.38
2023-10-24T09:37:11.299Z,12.44
2023-10-24T09:39:59.672Z,12.56
2023-10-24T09:42:31.778Z,12.56
2023-10-24T09:45:08.437Z,12.50
2023-10-24T09:47:38.864Z,12.75
2023-10-24T09:50:09.749Z,13.00
2023-10-24T09:52:37.583Z,12.75
2023-10-24T09:55:05.246Z,12.81
2023-10-24T09:57:31.946Z,13.00
2023-10-24T10:00:00.326Z,12.75
2023-10-24T10:02:28.177Z,12.94
2023-10-24T10:04:55.642Z,12.81
2023-10-24T10:07:22.854Z,12.75
2023-10-24T10:09:55.580Z,12.88
2023-10-24T10:12:22.942Z,12.88
2023-10-24T10:15:08.012Z,12.75
2023-10-24T10:17:37.533Z,12.81
2023-10-24T10:20:33.273Z,12.75
2023-10-24T10:23:31.967Z,12.69
2023-10-24T10:26:22.296Z,12.69
2023-10-24T10:29:09.308Z,12.63
2023-10-24T10:32:36.273Z,12.63
2023-10-24T10:34:38.690Z,12.63
2023-10-24T10:37:05.996Z,12.63
2023-10-24T10:39:32.745Z,12.63
2023-10-24T10:41:59.379Z,12.56
2023-10-24T10:44:43.712Z,12.63
2023-10-24T10:47:16.349Z,12.63
2023-10-24T10:49:52.148Z,12.69
2023-10-24T10:52:42.548Z,12.75
2023-10-24T10:55:17.852Z,12.75
2023-10-24T10:58:12.212Z,12.81
2023-10-24T11:01:01.385Z,12.81
2023-10-24T11:03:39.900Z,12.88
2023-10-24T11:06:17.914Z,12.81
2023-10-24T11:08:51.292Z,12.88
2023-10-24T11:11:21.752Z,12.88
2023-10-24T11:13:50.005Z,12.88
2023-10-24T11:16:34.314Z,12.88
2023-10-24T11:19:03.915Z,12.81
2023-10-24T11:21:30.453Z,12.88
2023-10-24T11:23:59.944Z,12.88
2023-10-24T11:26:27.818Z,12.81
2023-10-24T11:28:55.395Z,12.75
2023-10-24T11:31:27.428Z,12.75
2023-10-24T11:33:54.439Z,12.75
2023-10-24T11:36:22.107Z,12.69
2023-10-24T11:38:48.878Z,12.69
2023-10-24T11:41:15.674Z,12.69
2023-10-24T11:43:46.618Z,12.63
2023-10-24T11:46:13.646Z,12.63
2023-10-24T11:48:40.453Z,12.63
2023-10-24T11:51:07.136Z,12.56
2023-10-24T11:53:35.332Z,12.56
2023-10-24T11:56:01.990Z,12.50
2023-10-24T11:58:34.058Z,12.44
2023-10-24T12:01:01.853Z,12.38
2023-10-24T12:03:49.352Z,12.31
2023-10-24T12:06:20.029Z,12.25
2023-10-24T12:08:48.916Z,12.19
2023-10-24T12:11:15.560Z,12.13
2023-10-24T12:13:42.397Z,12.19
2023-10-24T12:16:10.473Z,12.13
2023-10-24T12:18:40.017Z,12.13
2023-10-24T12:21:09.012Z,12.06
2023-10-24T12:23:37.311Z,12.06
2023-10-24T12:26:05.693Z,12.06
2023-10-24T12:28:35.834Z,12.00
2023-10-24T12:31:03.026Z,12.00
2023-10-24T12:33:29.817Z,11.94
2023-10-24T12:36:01.744Z,11.88
2023-10-24T12:38:29.504Z,11.81
2023-10-24T12:40:56.283Z,11.81
2023-10-24T12:43:23.001Z,11.75
2023-10-24T12:45:50.885Z,11.75
2023-10-24T12:48:19.496Z,11.75
2023-10-24T12:50:46.641Z,11.75
2023-10-24T12:53:13.967Z,11.69
2023-10-24T12:55:40.900Z,11.75
2023-10-24T12:58:07.631Z,11.69
2023-10-24T13:00:34.306Z,11.63
2023-10-24T13:03:10.988Z,11.69
2023-10-24T13:05:43.338Z,11.63
2023-10-24T13:08:10.093Z,11.56
2023-10-24T13:10:36.977Z,11.56
2023-10-24T13:13:03.657Z,11.50
2023-10-24T13:15:30.303Z,11.50
2023-10-24T13:17:56.991Z,11.50
2023-10-24T13:20:23.661Z,11.50
2023-10-24T13:22:52.296Z,11.44
2023-10-24T13:25:18.962Z,11.50
2023-10-24T13:27:45.589Z,11.56
2023-10-24T13:30:19.307Z,11.50
2023-10-24T13:32:52.301Z,11.50
2023-10-24T13:37:48.578Z,11.50
2023-10-24T13:40:15.256Z,11.44
2023-10-24T13:42:41.823Z,11.38
2023-10-24T13:45:08.857Z,11.44
2023-10-24T13:47:35.458Z,11.50
2023-10-24T13:50:02.827Z,11.50
2023-10-24T13:52:31.496Z,11.50
2023-10-24T13:54:58.144Z,11.56
2023-10-24T13:57:24.814Z,11.63
2023-10-24T13:59:51.643Z,11.63
2023-10-24T14:02:18.230Z,11.75
2023-10-24T14:04:44.965Z,11.75
2023-10-24T14:07:11.626Z,11.88
2023-10-24T14:09:38.410Z,11.81
2023-10-24T14:12:05.256Z,11.75
2023-10-24T14:14:33.350Z,11.81
2023-10-24T14:17:00.037Z,11.81
2023-10-24T14:19:26.641Z,11.75
2023-10-24T14:21:58.494Z,11.75
2023-10-24T14:24:25.132Z,11.69
2023-10-24T14:26:51.767Z,11.69
2023-10-24T14:29:18.433Z,11.75
2023-10-24T14:31:48.110Z,11.75
2023-10-24T14:34:17.060Z,11.69
2023-10-24T14:36:43.840Z,11.63
2023-10-24T14:39:10.796Z,11.69
2023-10-24T14:41:37.627Z,11.63
2023-10-24T14:44:04.426Z,11.63
2023-10-24T14:46:31.099Z,11.69
2023-10-24T14:48:57.766Z,11.81
2023-10-24T14:51:24.321Z,11.88
2023-10-24T14:53:54.267Z,12.00
2023-10-24T14:56:21.602Z,12.25
2023-10-24T14:58:49.426Z,12.25
2023-10-24T15:01:16.726Z,12.25
2023-10-24T15:03:43.543Z,12.25
2023-10-24T15:06:10.114Z,12.25
2023-10-24T15:08:36.720Z,12.25
2023-10-24T15:11:03.303Z,12.31
2023-10-24T15:13:30.003Z,12.31
2023-10-24T15:15:56.596Z,12.19
2023-10-24T15:18:23.332Z,12.19
2023-10-24T15:20:50.017Z,12.19
2023-10-24T15:23:16.758Z,12.06
2023-10-24T15:25:48.518Z,12.00
2023-10-24T15:28:15.157Z,12.00
2023-10-24T15:30:45.522Z,11.94
2023-10-24T15:33:12.091Z,11.94
2023-10-24T15:35:40.211Z,12.00
2023-10-24T15:38:06.967Z,12.06
2023-10-24T15:40:33.740Z,12.13
2023-10-24T15:43:00.796Z,12.13
2023-10-24T15:45:27.467Z,12.13
2023-10-24T15:47:54.144Z,12.25
2023-10-24T15:50:20.937Z,12.25
2023-10-24T15:52:47.957Z,12.31
2023-10-24T15:55:27.442Z,12.31
2023-10-24T15:57:57.875Z,12.31
2023-10-24T16:00:28.403Z,12.44
2023-10-24T16:02:55.237Z,12.50
2023-10-24T16:05:24.054Z,12.31
2023-10-24T16:07:50.745Z,12.31
2023-10-24T16:10:17.417Z,12.31
2023-10-24T16:12:44.013Z,12.31
2023-10-24T16:15:10.808Z,12.19
2023-10-24T16:17:39.710Z,12.06
2023-10-24T16:20:07.444Z,12.00
2023-10-24T16:22:34.063Z,11.94
2023-10-24T16:25:00.734Z,11.81
2023-10-24T16:27:28.683Z,11.69
2023-10-24T16:29:55.294Z,11.63
2023-10-24T16:32:21.975Z,11.50
2023-10-24T16:34:48.729Z,11.44
2023-10-24T16:37:15.390Z,11.31
2023-10-24T16:39:42.091Z,11.25
2023-10-24T16:42:08.775Z,11.13
2023-10-24T16:44:35.337Z,11.00
2023-10-24T16:47:01.932Z,10.88
2023-10-24T16:49:29.369Z,10.56
2023-10-24T16:51:57.366Z,10.56
2023-10-24T16:54:24.094Z,10.69
2023-10-24T16:56:50.923Z,10.81
2023-10-24T16:59:17.565Z,10.81
2023-10-24T17:01:44.391Z,10.75
2023-10-24T17:04:11.200Z,10.75
2023-10-24T17:06:38.220Z,10.75
2023-10-24T17:09:06.603Z,10.69
2023-10-24T17:11:33.285Z,10.69
2023-10-24T17:14:01.776Z,10.69
2023-10-24T17:16:29.332Z,10.63
2023-10-24T17:18:56.064Z,10.81
2023-10-24T17:21:22.712Z,10.81
2023-10-24T17:23:49.316Z,10.81
2023-10-24T17:26:17.271Z,10.81
2023-10-24T17:28:44.780Z,10.88
2023-10-24T17:31:12.138Z,10.88
2023-10-24T17:33:38.781Z,10.56
2023-10-24T17:36:07.249Z,10.75
2023-10-24T17:38:34.429Z,10.63
2023-10-24T17:41:03.901Z,10.69
2023-10-24T17:43:30.552Z,10.69
2023-10-24T17:45:59.295Z,10.69
2023-10-24T17:48:29.545Z,10.63
2023-10-24T17:50:56.151Z,10.50
2023-10-24T17:53:22.858Z,10.69
2023-10-24T17:55:49.501Z,10.75
2023-10-24T17:58:16.129Z,10.81
2023-10-24T18:00:42.684Z,10.81
2023-10-24T18:03:09.365Z,10.81
2023-10-24T18:05:39.363Z,10.81
2023-10-24T18:08:06.504Z,10.81
2023-10-24T18:10:33.421Z,10.88
2023-10-24T18:13:00.052Z,10.81
2023-10-24T18:15:30.156Z,10.88
2023-10-24T18:17:57.157Z,10.81
2023-10-24T18:20:23.771Z,10.81
2023-10-24T18:22:50.377Z,10.69
2023-10-24T18:25:18.192Z,10.63
2023-10-24T18:27:44.832Z,10.75
2023-10-24T18:30:13.324Z,10.75
2023-10-24T18:32:39.892Z,10.81
2023-10-24T18:35:08.393Z,10.81
2023-10-24T18:37:35.006Z,10.75
2023-10-24T18:40:02.413Z,10.75
2023-10-24T18:42:30.754Z,10.75
2023-10-24T18:44:59.109Z,10.75
2023-10-24T18:47:26.614Z,10.75
2023-10-24T18:49:53.494Z,10.75
2023-10-24T18:52:20.211Z,10.75
2023-10-24T18:54:46.827Z,10.81
2023-10-24T18:57:13.444Z,10.75
2023-10-24T18:59:40.305Z,10.75
2023-10-24T19:02:07.114Z,10.75
2023-10-24T19:04:36.379Z,10.75
2023-10-24T19:07:03.418Z,10.81
2023-10-24T19:09:30.089Z,10.81
2023-10-24T19:11:57.028Z,10.75
2023-10-24T19:14:24.849Z,10.69
2023-10-24T19:16:51.727Z,10.63
2023-10-24T19:19:19.582Z,10.56
2023-10-24T19:21:46.531Z,10.63
2023-10-24T19:24:13.683Z,10.56
2023-10-24T19:26:42.881Z,10.56
2023-10-24T19:29:10.373Z,10.56
2023-10-24T19:31:37.322Z,10.44
2023-10-24T19:34:04.870Z,10.44
2023-10-24T19:36:31.721Z,10.44
2023-10-24T19:38:58.551Z,10.38
2023-10-24T19:41:25.478Z,10.25
2023-10-24T19:43:52.282Z,10.31
2023-10-24T19:46:22.206Z,10.31
2023-10-24T19:48:49.324Z,10.25
2023-10-24T19:51:16.024Z,10.19
2023-10-24T19:53:42.962Z,10.25
2023-10-24T19:56:10.735Z,10.25
2023-10-24T19:58:40.067Z,10.19
2023-10-24T20:01:07.947Z,10.19
2023-10-24T20:03:35.568Z,10.25
2023-10-24T20:06:03.918Z,10.19
2023-10-24T20:08:36.799Z,10.19
2023-10-24T20:12:34.543Z,10.19
2023-10-24T20:13:51.371Z,10.13
2023-10-24T20:16:20.913Z,10.06
2023-10-24T20:18:50.595Z,10.13
2023-10-24T20:21:17.807Z,10.06
2023-10-24T20:23:51.030Z,10.06
2023-10-24T20:26:25.018Z,10.06
2023-10-24T20:28:53.692Z,10.06
2023-10-24T20:31:20.729Z,10.00
2023-10-24T20:33:47.545Z,10.00
2023-10-24T20:36:14.551Z,10.00
2023-10-24T20:38:41.206Z,10.00
2023-10-24T20:41:07.853Z,10.00
2023-10-24T20:43:34.453Z,9.94
2023-10-24T20:46:02.207Z,9.94
2023-10-24T20:48:28.848Z,9.94
2023-10-24T20:50:55.782Z,9.94
2023-10-24T20:53:23.661Z,9.94
2023-10-24T20:55:57.709Z,10.00
2023-10-24T20:58:27.654Z,9.88
2023-10-24T21:00:54.452Z,9.94
2023-10-24T21:03:21.718Z,9.94
2023-10-24T21:05:48.831Z,9.88
2023-10-24T21:08:15.509Z,9.75
2023-10-24T21:10:43.112Z,9.88
2023-10-24T21:13:09.772Z,9.94
2023-10-24T21:15:36.440Z,9.88
2023-10-24T21:18:03.181Z,9.88
2023-10-24T21:20:29.871Z,9.81
2023-10-24T21:22:56.513Z,9.88
2023-10-24T21:25:23.153Z,9.88
2023-10-24T21:27:49.797Z,9.88
2023-10-24T21:30:16.463Z,9.75
2023-10-24T21:32:43.121Z,9.81
2023-10-24T21:35:09.776Z,9.81
2023-10-24T21:37:36.459Z,9.75
2023-10-24T21:40:03.918Z,9.75
2023-10-24T21:42:30.678Z,9.69
2023-10-24T21:44:57.395Z,9.75
2023-10-24T21:47:24.040Z,9.69
2023-10-24T21:49:50.673Z,9.75
2023-10-24T21:52:17.334Z,9.75
2023-10-24T21:54:44.591Z,9.69
2023-10-24T21:57:13.811Z,9.63
2023-10-24T21:59:40.885Z,9.63
2023-10-24T22:02:07.711Z,9.56
2023-10-24T22:04:34.351Z,9.56
2023-10-24T22:07:01.164Z,9.63
2023-10-24T22:09:28.053Z,9.56
2023-10-24T22:11:54.667Z,9.50
2023-10-24T22:14:21.280Z,9.44
2023-10-24T22:16:47.925Z,9.44
2023-10-24T22:19:15.142Z,9.38
2023-10-24T22:21:41.852Z,9.38
2023-10-24T22:24:08.638Z,9.31
2023-10-24T22:26:35.279Z,9.31
2023-10-24T22:29:01.889Z,9.31
2023-10-24T22:31:28.758Z,9.44
2023-10-24T22:33:55.789Z,9.38
2023-10-24T22:36:22.519Z,9.38
2023-10-24T22:38:49.164Z,9.38
2023-10-24T22:41:15.775Z,9.25
2023-10-24T22:43:42.406Z,9.25
2023-10-24T22:46:09.196Z,9.31
2023-10-24T22:48:37.714Z,9.31
2023-10-24T22:51:04.415Z,9.31
2023-10-24T22:53:31.219Z,9.31
2023-10-24T22:55:57.842Z,9.25
2023-10-24T22:58:24.451Z,9.25
2023-10-24T23:00:51.191Z,9.25
2023-10-24T23:03:17.975Z,9.25
2023-10-24T23:05:44.597Z,9.38
2023-10-24T23:08:11.215Z,9.38
2023-10-24T23:10:37.796Z,9.31
2023-10-24T23:13:06.928Z,9.31
2023-10-24T23:15:33.615Z,9.38
2023-10-24T23:18:00.335Z,9.31
2023-10-24T23:20:27.042Z,9.25
2023-10-24T23:22:53.671Z,9.31
2023-10-24T23:25:20.270Z,9.25
2023-10-24T23:27:46.987Z,9.25
2023-10-24T23:30:13.926Z,9.19
2023-10-24T23:32:40.610Z,9.19
2023-10-24T23:35:07.877Z,9.19
2023-10-24T23:37:34.568Z,9.13
2023-10-24T23:40:01.213Z,9.13
2023-10-24T23:42:27.903Z,9.06
2023-10-24T23:44:54.497Z,9.13
2023-10-24T23:47:22.082Z,9.06
2023-10-24T23:49:48.702Z,9.06
2023-10-24T23:52:15.364Z,9.00
2023-10-24T23:54:42.162Z,8.88
2023-10-24T23:57:08.813Z,8.94
2023-10-24T23:59:35.504Z,8.94
